sensor_id;sensor_type;location;lat;lon;timestamp;P1;durP1;ratioP1;P2;durP2;ratioP2
22531;SDS011;11432;46.924;7.114;2022-12-29T00:00:04;1.40;;;0.77;;
22531;SDS011;11432;46.924;7.114;2022-12-29T00:02:32;1.73;;;0.90;;
22531;SDS011;11432;46.924;7.114;2022-12-29T00:04:57;1.05;;;0.60;;
22531;SDS011;11432;46.924;7.114;2022-12-29T00:07:23;2.22;;;1.05;;
22531;SDS011;11432;46.924;7.114;2022-12-29T00:09:48;5.05;;;1.25;;
22531;SDS011;11432;46.924;7.114;2022-12-29T00:12:14;1.48;;;0.60;;
22531;SDS011;11432;46.924;7.114;2022-12-29T00:14:39;2.00;;;1.00;;
22531;SDS011;11432;46.924;7.114;2022-12-29T00:17:24;1.60;;;0.88;;
22531;SDS011;11432;46.924;7.114;2022-12-29T00:19:49;0.95;;;0.68;;
22531;SDS011;11432;46.924;7.114;2022-12-29T00:22:33;3.55;;;1.20;;
22531;SDS011;11432;46.924;7.114;2022-12-29T00:25:17;4.50;;;1.33;;
22531;SDS011;11432;46.924;7.114;2022-12-29T00:28:01;1.80;;;0.93;;
22531;SDS011;11432;46.924;7.114;2022-12-29T00:30:45;2.90;;;1.20;;
22531;SDS011;11432;46.924;7.114;2022-12-29T00:33:30;3.72;;;1.20;;
22531;SDS011;11432;46.924;7.114;2022-12-29T00:39:07;1.55;;;1.05;;
22531;SDS011;11432;46.924;7.114;2022-12-29T00:42:06;4.68;;;1.20;;
22531;SDS011;11432;46.924;7.114;2022-12-29T00:45:05;1.25;;;0.68;;
22531;SDS011;11432;46.924;7.114;2022-12-29T00:47:31;2.00;;;1.02;;
22531;SDS011;11432;46.924;7.114;2022-12-29T00:49:56;2.53;;;1.20;;
22531;SDS011;11432;46.924;7.114;2022-12-29T00:52:22;4.47;;;0.98;;
22531;SDS011;11432;46.924;7.114;2022-12-29T00:54:47;1.17;;;0.82;;
22531;SDS011;11432;46.924;7.114;2022-12-29T00:57:13;1.30;;;0.90;;
22531;SDS011;11432;46.924;7.114;2022-12-29T00:59:39;0.65;;;0.55;;
22531;SDS011;11432;46.924;7.114;2022-12-29T01:02:06;1.67;;;1.20;;
22531;SDS011;11432;46.924;7.114;2022-12-29T01:04:32;1.85;;;0.77;;
22531;SDS011;11432;46.924;7.114;2022-12-29T01:06:58;4.90;;;1.38;;
22531;SDS011;11432;46.924;7.114;2022-12-29T01:09:23;3.25;;;1.13;;
22531;SDS011;11432;46.924;7.114;2022-12-29T01:12:08;1.70;;;1.00;;
22531;SDS011;11432;46.924;7.114;2022-12-29T01:14:35;1.75;;;1.10;;
22531;SDS011;11432;46.924;7.114;2022-12-29T01:17:01;2.50;;;1.27;;
22531;SDS011;11432;46.924;7.114;2022-12-29T01:19:27;2.83;;;1.52;;
22531;SDS011;11432;46.924;7.114;2022-12-29T01:21:52;2.95;;;1.52;;
22531;SDS011;11432;46.924;7.114;2022-12-29T01:24:18;6.88;;;1.55;;
22531;SDS011;11432;46.924;7.114;2022-12-29T01:26:45;2.97;;;1.67;;
22531;SDS011;11432;46.924;7.114;2022-12-29T01:29:11;3.17;;;1.52;;
22531;SDS011;11432;46.924;7.114;2022-12-29T01:31:37;5.03;;;1.70;;
22531;SDS011;11432;46.924;7.114;2022-12-29T01:34:03;1.83;;;1.08;;
22531;SDS011;11432;46.924;7.114;2022-12-29T01:36:29;2.80;;;1.55;;
22531;SDS011;11432;46.924;7.114;2022-12-29T01:38:55;2.17;;;0.95;;
22531;SDS011;11432;46.924;7.114;2022-12-29T01:41:21;2.47;;;1.50;;
22531;SDS011;11432;46.924;7.114;2022-12-29T01:43:51;3.97;;;1.90;;
22531;SDS011;11432;46.924;7.114;2022-12-29T01:51:33;2.08;;;1.20;;
22531;SDS011;11432;46.924;7.114;2022-12-29T01:54:04;4.18;;;1.02;;
22531;SDS011;11432;46.924;7.114;2022-12-29T01:56:35;3.75;;;1.85;;
22531;SDS011;11432;46.924;7.114;2022-12-29T01:59:05;2.63;;;1.63;;
22531;SDS011;11432;46.924;7.114;2022-12-29T02:01:33;2.58;;;1.27;;
22531;SDS011;11432;46.924;7.114;2022-12-29T02:03:59;2.45;;;1.40;;
22531;SDS011;11432;46.924;7.114;2022-12-29T02:06:29;2.25;;;1.35;;
22531;SDS011;11432;46.924;7.114;2022-12-29T02:09:00;1.80;;;1.02;;
22531;SDS011;11432;46.924;7.114;2022-12-29T02:11:26;3.92;;;1.50;;
22531;SDS011;11432;46.924;7.114;2022-12-29T02:13:54;2.60;;;0.90;;
22531;SDS011;11432;46.924;7.114;2022-12-29T02:21:50;2.17;;;1.10;;
22531;SDS011;11432;46.924;7.114;2022-12-29T02:40:24;4.55;;;1.27;;
22531;SDS011;11432;46.924;7.114;2022-12-29T02:43:15;2.78;;;1.27;;
22531;SDS011;11432;46.924;7.114;2022-12-29T02:48:43;1.42;;;1.05;;
22531;SDS011;11432;46.924;7.114;2022-12-29T02:51:26;1.48;;;0.88;;
22531;SDS011;11432;46.924;7.114;2022-12-29T02:53:56;1.63;;;0.65;;
22531;SDS011;11432;46.924;7.114;2022-12-29T02:56:41;1.73;;;0.73;;
22531;SDS011;11432;46.924;7.114;2022-12-29T02:59:06;3.33;;;1.20;;
22531;SDS011;11432;46.924;7.114;2022-12-29T03:04:39;0.95;;;0.38;;
22531;SDS011;11432;46.924;7.114;2022-12-29T03:09:50;2.03;;;1.10;;
22531;SDS011;11432;46.924;7.114;2022-12-29T03:15:22;1.33;;;0.73;;
22531;SDS011;11432;46.924;7.114;2022-12-29T03:18:19;4.78;;;1.30;;
22531;SDS011;11432;46.924;7.114;2022-12-29T03:20:51;1.50;;;1.02;;
22531;SDS011;11432;46.924;7.114;2022-12-29T03:23:24;1.80;;;1.00;;
22531;SDS011;11432;46.924;7.114;2022-12-29T03:25:52;2.08;;;1.00;;
22531;SDS011;11432;46.924;7.114;2022-12-29T03:28:30;3.33;;;0.80;;
22531;SDS011;11432;46.924;7.114;2022-12-29T03:31:00;3.03;;;1.25;;
22531;SDS011;11432;46.924;7.114;2022-12-29T03:33:29;1.80;;;0.83;;
22531;SDS011;11432;46.924;7.114;2022-12-29T03:35:58;2.95;;;1.02;;
22531;SDS011;11432;46.924;7.114;2022-12-29T03:38:31;1.83;;;1.02;;
22531;SDS011;11432;46.924;7.114;2022-12-29T03:41:04;2.53;;;1.10;;
22531;SDS011;11432;46.924;7.114;2022-12-29T03:43:32;2.17;;;1.10;;
22531;SDS011;11432;46.924;7.114;2022-12-29T03:45:59;1.55;;;1.02;;
22531;SDS011;11432;46.924;7.114;2022-12-29T03:48:24;0.98;;;0.65;;
22531;SDS011;11432;46.924;7.114;2022-12-29T03:50:50;1.95;;;0.80;;
22531;SDS011;11432;46.924;7.114;2022-12-29T03:53:15;1.73;;;1.00;;
22531;SDS011;11432;46.924;7.114;2022-12-29T03:55:41;1.83;;;0.82;;
22531;SDS011;11432;46.924;7.114;2022-12-29T03:58:07;1.42;;;0.93;;
22531;SDS011;11432;46.924;7.114;2022-12-29T04:00:32;1.60;;;0.60;;
22531;SDS011;11432;46.924;7.114;2022-12-29T04:02:58;1.85;;;0.85;;
22531;SDS011;11432;46.924;7.114;2022-12-29T04:05:23;3.08;;;1.10;;
22531;SDS011;11432;46.924;7.114;2022-12-29T04:07:49;0.70;;;0.40;;
22531;SDS011;11432;46.924;7.114;2022-12-29T04:10:15;2.75;;;0.90;;
22531;SDS011;11432;46.924;7.114;2022-12-29T04:12:40;1.70;;;0.82;;
22531;SDS011;11432;46.924;7.114;2022-12-29T04:15:11;2.15;;;1.00;;
22531;SDS011;11432;46.924;7.114;2022-12-29T04:17:36;3.17;;;0.77;;
22531;SDS011;11432;46.924;7.114;2022-12-29T04:20:02;3.95;;;0.65;;
22531;SDS011;11432;46.924;7.114;2022-12-29T04:22:47;1.13;;;0.68;;
22531;SDS011;11432;46.924;7.114;2022-12-29T04:25:12;0.80;;;0.30;;
22531;SDS011;11432;46.924;7.114;2022-12-29T04:27:38;1.77;;;0.90;;
22531;SDS011;11432;46.924;7.114;2022-12-29T04:30:04;1.65;;;0.98;;
22531;SDS011;11432;46.924;7.114;2022-12-29T04:32:30;1.88;;;0.80;;
22531;SDS011;11432;46.924;7.114;2022-12-29T04:34:55;1.65;;;0.73;;
22531;SDS011;11432;46.924;7.114;2022-12-29T04:37:21;4.82;;;0.90;;
22531;SDS011;11432;46.924;7.114;2022-12-29T04:39:46;1.95;;;0.80;;
22531;SDS011;11432;46.924;7.114;2022-12-29T04:42:12;2.47;;;1.20;;
22531;SDS011;11432;46.924;7.114;2022-12-29T04:44:37;1.05;;;0.47;;
22531;SDS011;11432;46.924;7.114;2022-12-29T04:47:03;3.03;;;0.90;;
22531;SDS011;11432;46.924;7.114;2022-12-29T04:49:29;2.28;;;1.00;;
22531;SDS011;11432;46.924;7.114;2022-12-29T04:51:54;3.53;;;1.20;;
22531;SDS011;11432;46.924;7.114;2022-12-29T04:54:20;4.03;;;1.02;;
22531;SDS011;11432;46.924;7.114;2022-12-29T04:56:45;4.63;;;1.23;;
22531;SDS011;11432;46.924;7.114;2022-12-29T04:59:11;3.42;;;1.00;;
22531;SDS011;11432;46.924;7.114;2022-12-29T05:01:36;2.47;;;1.02;;
22531;SDS011;11432;46.924;7.114;2022-12-29T05:04:02;2.40;;;1.00;;
22531;SDS011;11432;46.924;7.114;2022-12-29T05:06:28;2.17;;;1.17;;
22531;SDS011;11432;46.924;7.114;2022-12-29T05:08:53;2.58;;;1.20;;
22531;SDS011;11432;46.924;7.114;2022-12-29T05:11:19;2.90;;;0.88;;
22531;SDS011;11432;46.924;7.114;2022-12-29T05:13:45;3.03;;;1.25;;
22531;SDS011;11432;46.924;7.114;2022-12-29T05:16:11;3.78;;;1.10;;
22531;SDS011;11432;46.924;7.114;2022-12-29T05:18:37;3.58;;;1.15;;
22531;SDS011;11432;46.924;7.114;2022-12-29T05:21:02;4.65;;;1.55;;
22531;SDS011;11432;46.924;7.114;2022-12-29T05:23:28;3.83;;;1.40;;
22531;SDS011;11432;46.924;7.114;2022-12-29T05:25:54;2.33;;;1.20;;
22531;SDS011;11432;46.924;7.114;2022-12-29T05:28:19;3.40;;;1.35;;
22531;SDS011;11432;46.924;7.114;2022-12-29T05:30:47;5.18;;;1.25;;
22531;SDS011;11432;46.924;7.114;2022-12-29T05:33:15;2.33;;;1.17;;
22531;SDS011;11432;46.924;7.114;2022-12-29T05:35:41;3.05;;;1.20;;
22531;SDS011;11432;46.924;7.114;2022-12-29T05:38:06;3.85;;;1.08;;
22531;SDS011;11432;46.924;7.114;2022-12-29T05:40:32;3.60;;;1.10;;
22531;SDS011;11432;46.924;7.114;2022-12-29T05:42:57;2.13;;;1.35;;
22531;SDS011;11432;46.924;7.114;2022-12-29T05:45:23;3.72;;;1.10;;
22531;SDS011;11432;46.924;7.114;2022-12-29T05:47:49;2.15;;;1.48;;
22531;SDS011;11432;46.924;7.114;2022-12-29T05:50:14;4.00;;;1.65;;
22531;SDS011;11432;46.924;7.114;2022-12-29T05:52:40;4.78;;;1.17;;
22531;SDS011;11432;46.924;7.114;2022-12-29T05:55:06;1.85;;;0.90;;
22531;SDS011;11432;46.924;7.114;2022-12-29T05:57:32;3.42;;;1.42;;
22531;SDS011;11432;46.924;7.114;2022-12-29T05:59:57;3.03;;;1.23;;
22531;SDS011;11432;46.924;7.114;2022-12-29T06:02:23;4.05;;;1.05;;
22531;SDS011;11432;46.924;7.114;2022-12-29T06:04:48;3.17;;;1.60;;
22531;SDS011;11432;46.924;7.114;2022-12-29T06:07:14;3.67;;;1.08;;
22531;SDS011;11432;46.924;7.114;2022-12-29T06:09:39;4.60;;;1.38;;
22531;SDS011;11432;46.924;7.114;2022-12-29T06:12:05;3.38;;;1.35;;
22531;SDS011;11432;46.924;7.114;2022-12-29T06:14:31;2.28;;;1.02;;
22531;SDS011;11432;46.924;7.114;2022-12-29T06:16:57;2.00;;;0.93;;
22531;SDS011;11432;46.924;7.114;2022-12-29T06:19:22;3.63;;;1.55;;
22531;SDS011;11432;46.924;7.114;2022-12-29T06:21:48;3.00;;;1.42;;
22531;SDS011;11432;46.924;7.114;2022-12-29T06:24:13;3.22;;;1.48;;
22531;SDS011;11432;46.924;7.114;2022-12-29T06:26:39;2.92;;;1.30;;
22531;SDS011;11432;46.924;7.114;2022-12-29T06:29:05;2.72;;;1.30;;
22531;SDS011;11432;46.924;7.114;2022-12-29T06:31:33;3.25;;;1.50;;
22531;SDS011;11432;46.924;7.114;2022-12-29T06:33:58;4.25;;;1.70;;
22531;SDS011;11432;46.924;7.114;2022-12-29T06:36:24;5.13;;;1.52;;
22531;SDS011;11432;46.924;7.114;2022-12-29T06:38:49;3.10;;;1.40;;
22531;SDS011;11432;46.924;7.114;2022-12-29T06:41:17;3.35;;;1.23;;
22531;SDS011;11432;46.924;7.114;2022-12-29T06:43:43;3.47;;;1.38;;
22531;SDS011;11432;46.924;7.114;2022-12-29T06:46:09;3.10;;;1.70;;
22531;SDS011;11432;46.924;7.114;2022-12-29T06:48:35;3.95;;;2.35;;
22531;SDS011;11432;46.924;7.114;2022-12-29T06:51:00;3.30;;;1.40;;
22531;SDS011;11432;46.924;7.114;2022-12-29T06:53:26;5.18;;;1.70;;
22531;SDS011;11432;46.924;7.114;2022-12-29T06:55:52;3.47;;;1.80;;
22531;SDS011;11432;46.924;7.114;2022-12-29T06:58:17;4.43;;;1.58;;
22531;SDS011;11432;46.924;7.114;2022-12-29T07:00:43;2.75;;;1.40;;
22531;SDS011;11432;46.924;7.114;2022-12-29T07:03:09;1.95;;;1.35;;
22531;SDS011;11432;46.924;7.114;2022-12-29T07:05:34;2.75;;;1.35;;
22531;SDS011;11432;46.924;7.114;2022-12-29T07:08:00;5.13;;;2.40;;
22531;SDS011;11432;46.924;7.114;2022-12-29T07:10:26;2.95;;;1.70;;
22531;SDS011;11432;46.924;7.114;2022-12-29T07:12:51;2.05;;;1.25;;
22531;SDS011;11432;46.924;7.114;2022-12-29T07:15:17;3.83;;;1.67;;
22531;SDS011;11432;46.924;7.114;2022-12-29T07:17:43;3.40;;;1.30;;
22531;SDS011;11432;46.924;7.114;2022-12-29T07:20:08;4.28;;;1.42;;
22531;SDS011;11432;46.924;7.114;2022-12-29T07:22:34;3.03;;;1.25;;
22531;SDS011;11432;46.924;7.114;2022-12-29T07:25:00;3.17;;;1.20;;
22531;SDS011;11432;46.924;7.114;2022-12-29T07:27:26;1.73;;;0.80;;
22531;SDS011;11432;46.924;7.114;2022-12-29T07:29:51;2.10;;;0.88;;
22531;SDS011;11432;46.924;7.114;2022-12-29T07:32:17;2.40;;;0.98;;
22531;SDS011;11432;46.924;7.114;2022-12-29T07:34:43;2.10;;;0.80;;
22531;SDS011;11432;46.924;7.114;2022-12-29T07:37:12;1.27;;;0.60;;
22531;SDS011;11432;46.924;7.114;2022-12-29T07:39:39;4.47;;;0.60;;
22531;SDS011;11432;46.924;7.114;2022-12-29T07:42:04;1.40;;;0.88;;
22531;SDS011;11432;46.924;7.114;2022-12-29T07:44:30;4.20;;;0.73;;
22531;SDS011;11432;46.924;7.114;2022-12-29T07:46:56;4.38;;;0.90;;
22531;SDS011;11432;46.924;7.114;2022-12-29T07:49:21;2.35;;;0.93;;
22531;SDS011;11432;46.924;7.114;2022-12-29T07:51:47;4.25;;;0.90;;
22531;SDS011;11432;46.924;7.114;2022-12-29T07:54:12;1.90;;;0.90;;
22531;SDS011;11432;46.924;7.114;2022-12-29T07:56:38;0.60;;;0.40;;
22531;SDS011;11432;46.924;7.114;2022-12-29T07:59:04;4.13;;;0.93;;
22531;SDS011;11432;46.924;7.114;2022-12-29T08:01:30;6.43;;;1.15;;
22531;SDS011;11432;46.924;7.114;2022-12-29T08:03:56;2.15;;;0.73;;
22531;SDS011;11432;46.924;7.114;2022-12-29T08:06:21;1.63;;;0.65;;
22531;SDS011;11432;46.924;7.114;2022-12-29T08:08:47;2.70;;;0.95;;
22531;SDS011;11432;46.924;7.114;2022-12-29T08:11:13;2.05;;;1.00;;
22531;SDS011;11432;46.924;7.114;2022-12-29T08:13:38;2.10;;;1.00;;
22531;SDS011;11432;46.924;7.114;2022-12-29T08:16:04;3.35;;;1.40;;
22531;SDS011;11432;46.924;7.114;2022-12-29T08:18:30;2.65;;;1.13;;
22531;SDS011;11432;46.924;7.114;2022-12-29T08:21:00;1.55;;;0.82;;
22531;SDS011;11432;46.924;7.114;2022-12-29T08:23:26;3.40;;;1.25;;
22531;SDS011;11432;46.924;7.114;2022-12-29T08:26:02;3.33;;;1.30;;
22531;SDS011;11432;46.924;7.114;2022-12-29T08:28:30;2.83;;;0.90;;
22531;SDS011;11432;46.924;7.114;2022-12-29T08:31:00;4.13;;;0.95;;
22531;SDS011;11432;46.924;7.114;2022-12-29T08:33:26;5.75;;;1.25;;
22531;SDS011;11432;46.924;7.114;2022-12-29T08:35:52;3.22;;;1.00;;
22531;SDS011;11432;46.924;7.114;2022-12-29T08:38:23;4.03;;;1.27;;
22531;SDS011;11432;46.924;7.114;2022-12-29T08:40:48;4.53;;;1.10;;
22531;SDS011;11432;46.924;7.114;2022-12-29T08:43:16;2.22;;;0.80;;
22531;SDS011;11432;46.924;7.114;2022-12-29T08:45:41;2.08;;;1.00;;
22531;SDS011;11432;46.924;7.114;2022-12-29T08:48:07;2.47;;;1.00;;
22531;SDS011;11432;46.924;7.114;2022-12-29T08:50:32;3.63;;;0.90;;
22531;SDS011;11432;46.924;7.114;2022-12-29T08:52:58;4.35;;;1.10;;
22531;SDS011;11432;46.924;7.114;2022-12-29T08:55:24;2.63;;;0.77;;
22531;SDS011;11432;46.924;7.114;2022-12-29T08:57:49;2.97;;;1.20;;
22531;SDS011;11432;46.924;7.114;2022-12-29T09:00:15;5.90;;;1.10;;
22531;SDS011;11432;46.924;7.114;2022-12-29T09:02:41;2.58;;;1.10;;
22531;SDS011;11432;46.924;7.114;2022-12-29T09:05:06;2.40;;;0.93;;
22531;SDS011;11432;46.924;7.114;2022-12-29T09:07:32;4.93;;;1.00;;
22531;SDS011;11432;46.924;7.114;2022-12-29T09:09:58;3.25;;;0.90;;
22531;SDS011;11432;46.924;7.114;2022-12-29T09:12:23;4.40;;;1.00;;
22531;SDS011;11432;46.924;7.114;2022-12-29T09:14:49;3.42;;;1.20;;
22531;SDS011;11432;46.924;7.114;2022-12-29T09:17:15;2.65;;;1.08;;
22531;SDS011;11432;46.924;7.114;2022-12-29T09:19:59;1.83;;;1.08;;
22531;SDS011;11432;46.924;7.114;2022-12-29T09:22:24;2.33;;;1.00;;
22531;SDS011;11432;46.924;7.114;2022-12-29T09:24:50;3.00;;;0.90;;
22531;SDS011;11432;46.924;7.114;2022-12-29T09:27:15;2.50;;;1.20;;
22531;SDS011;11432;46.924;7.114;2022-12-29T09:29:41;2.05;;;0.80;;
22531;SDS011;11432;46.924;7.114;2022-12-29T09:32:06;7.03;;;0.90;;
22531;SDS011;11432;46.924;7.114;2022-12-29T09:34:32;3.67;;;1.08;;
22531;SDS011;11432;46.924;7.114;2022-12-29T09:36:59;1.58;;;0.80;;
22531;SDS011;11432;46.924;7.114;2022-12-29T09:46:18;3.28;;;0.90;;
22531;SDS011;11432;46.924;7.114;2022-12-29T09:51:37;2.30;;;0.93;;
22531;SDS011;11432;46.924;7.114;2022-12-29T09:56:49;2.28;;;0.90;;
22531;SDS011;11432;46.924;7.114;2022-12-29T09:59:17;4.35;;;0.80;;
22531;SDS011;11432;46.924;7.114;2022-12-29T10:04:22;1.83;;;0.80;;
22531;SDS011;11432;46.924;7.114;2022-12-29T10:06:56;3.42;;;0.95;;
22531;SDS011;11432;46.924;7.114;2022-12-29T10:09:38;3.67;;;1.20;;
22531;SDS011;11432;46.924;7.114;2022-12-29T10:23:20;2.33;;;0.90;;
22531;SDS011;11432;46.924;7.114;2022-12-29T10:25:56;4.53;;;1.13;;
22531;SDS011;11432;46.924;7.114;2022-12-29T10:28:23;6.30;;;0.98;;
22531;SDS011;11432;46.924;7.114;2022-12-29T10:31:01;2.80;;;1.00;;
22531;SDS011;11432;46.924;7.114;2022-12-29T10:33:35;3.38;;;1.02;;
22531;SDS011;11432;46.924;7.114;2022-12-29T10:36:12;1.88;;;0.90;;
22531;SDS011;11432;46.924;7.114;2022-12-29T10:38:40;4.45;;;1.10;;
22531;SDS011;11432;46.924;7.114;2022-12-29T10:41:24;1.50;;;0.70;;
22531;SDS011;11432;46.924;7.114;2022-12-29T10:43:56;4.45;;;1.02;;
22531;SDS011;11432;46.924;7.114;2022-12-29T10:46:25;2.20;;;0.90;;
22531;SDS011;11432;46.924;7.114;2022-12-29T10:48:54;4.28;;;0.95;;
22531;SDS011;11432;46.924;7.114;2022-12-29T10:51:21;3.97;;;0.90;;
22531;SDS011;11432;46.924;7.114;2022-12-29T10:53:57;2.92;;;1.00;;
22531;SDS011;11432;46.924;7.114;2022-12-29T10:56:29;2.28;;;0.80;;
22531;SDS011;11432;46.924;7.114;2022-12-29T10:59:34;5.00;;;1.20;;
22531;SDS011;11432;46.924;7.114;2022-12-29T11:07:11;2.92;;;1.17;;
22531;SDS011;11432;46.924;7.114;2022-12-29T11:09:38;1.75;;;0.77;;
22531;SDS011;11432;46.924;7.114;2022-12-29T11:17:47;2.67;;;0.77;;
22531;SDS011;11432;46.924;7.114;2022-12-29T11:20:36;2.72;;;0.80;;
22531;SDS011;11432;46.924;7.114;2022-12-29T11:23:05;2.60;;;1.05;;
22531;SDS011;11432;46.924;7.114;2022-12-29T11:26:19;2.50;;;0.93;;
22531;SDS011;11432;46.924;7.114;2022-12-29T11:28:47;2.33;;;0.90;;
22531;SDS011;11432;46.924;7.114;2022-12-29T11:31:36;2.58;;;1.00;;
22531;SDS011;11432;46.924;7.114;2022-12-29T11:34:15;5.18;;;1.00;;
22531;SDS011;11432;46.924;7.114;2022-12-29T11:37:00;2.58;;;0.88;;
22531;SDS011;11432;46.924;7.114;2022-12-29T11:41:56;1.73;;;0.88;;
22531;SDS011;11432;46.924;7.114;2022-12-29T11:44:22;4.03;;;1.05;;
22531;SDS011;11432;46.924;7.114;2022-12-29T11:46:49;1.95;;;0.77;;
22531;SDS011;11432;46.924;7.114;2022-12-29T11:49:20;1.92;;;0.80;;
22531;SDS011;11432;46.924;7.114;2022-12-29T11:51:50;3.30;;;0.93;;
22531;SDS011;11432;46.924;7.114;2022-12-29T11:54:27;3.03;;;1.00;;
22531;SDS011;11432;46.924;7.114;2022-12-29T11:57:08;3.22;;;0.93;;
22531;SDS011;11432;46.924;7.114;2022-12-29T11:59:40;1.45;;;0.75;;
22531;SDS011;11432;46.924;7.114;2022-12-29T12:04:44;2.22;;;0.73;;
22531;SDS011;11432;46.924;7.114;2022-12-29T12:07:18;4.80;;;0.90;;
22531;SDS011;11432;46.924;7.114;2022-12-29T12:10:00;3.08;;;0.80;;
22531;SDS011;11432;46.924;7.114;2022-12-29T12:12:29;4.22;;;0.90;;
22531;SDS011;11432;46.924;7.114;2022-12-29T12:14:59;3.15;;;0.90;;
22531;SDS011;11432;46.924;7.114;2022-12-29T12:22:45;1.80;;;0.75;;
22531;SDS011;11432;46.924;7.114;2022-12-29T12:25:33;5.20;;;1.10;;
22531;SDS011;11432;46.924;7.114;2022-12-29T12:30:52;2.53;;;0.90;;
22531;SDS011;11432;46.924;7.114;2022-12-29T12:33:28;2.42;;;0.93;;
22531;SDS011;11432;46.924;7.114;2022-12-29T12:58:11;2.05;;;0.82;;
22531;SDS011;11432;46.924;7.114;2022-12-29T13:08:55;2.75;;;0.80;;
22531;SDS011;11432;46.924;7.114;2022-12-29T13:14:19;2.20;;;0.75;;
22531;SDS011;11432;46.924;7.114;2022-12-29T13:17:03;1.92;;;0.80;;
22531;SDS011;11432;46.924;7.114;2022-12-29T13:19:41;1.73;;;0.80;;
22531;SDS011;11432;46.924;7.114;2022-12-29T13:30:15;2.83;;;0.80;;
22531;SDS011;11432;46.924;7.114;2022-12-29T13:40:53;1.52;;;0.57;;
22531;SDS011;11432;46.924;7.114;2022-12-29T13:43:21;3.25;;;0.70;;
22531;SDS011;11432;46.924;7.114;2022-12-29T13:48:50;1.13;;;0.70;;
22531;SDS011;11432;46.924;7.114;2022-12-29T13:51:16;1.13;;;0.60;;
22531;SDS011;11432;46.924;7.114;2022-12-29T13:56:40;1.88;;;0.70;;
22531;SDS011;11432;46.924;7.114;2022-12-29T14:05:00;1.92;;;0.65;;
22531;SDS011;11432;46.924;7.114;2022-12-29T14:07:35;2.40;;;0.88;;
22531;SDS011;11432;46.924;7.114;2022-12-29T14:10:02;1.58;;;0.90;;
22531;SDS011;11432;46.924;7.114;2022-12-29T14:12:38;3.65;;;0.90;;
22531;SDS011;11432;46.924;7.114;2022-12-29T14:17:35;2.25;;;0.85;;
22531;SDS011;11432;46.924;7.114;2022-12-29T14:20:01;2.20;;;1.00;;
22531;SDS011;11432;46.924;7.114;2022-12-29T14:22:29;1.77;;;1.00;;
22531;SDS011;11432;46.924;7.114;2022-12-29T14:24:55;2.42;;;0.80;;
22531;SDS011;11432;46.924;7.114;2022-12-29T14:34:51;2.63;;;0.60;;
22531;SDS011;11432;46.924;7.114;2022-12-29T14:37:39;1.30;;;0.63;;
22531;SDS011;11432;46.924;7.114;2022-12-29T14:42:50;1.13;;;0.52;;
22531;SDS011;11432;46.924;7.114;2022-12-29T14:47:48;2.92;;;0.80;;
22531;SDS011;11432;46.924;7.114;2022-12-29T14:53:10;1.98;;;0.77;;
22531;SDS011;11432;46.924;7.114;2022-12-29T14:56:13;2.92;;;0.50;;
22531;SDS011;11432;46.924;7.114;2022-12-29T14:58:51;1.30;;;0.55;;
22531;SDS011;11432;46.924;7.114;2022-12-29T15:01:24;1.67;;;0.90;;
22531;SDS011;11432;46.924;7.114;2022-12-29T15:04:13;3.97;;;0.70;;
22531;SDS011;11432;46.924;7.114;2022-12-29T15:06:44;2.30;;;0.82;;
22531;SDS011;11432;46.924;7.114;2022-12-29T15:12:04;1.40;;;0.65;;
22531;SDS011;11432;46.924;7.114;2022-12-29T15:14:56;3.00;;;0.70;;
22531;SDS011;11432;46.924;7.114;2022-12-29T15:17:33;3.42;;;0.73;;
22531;SDS011;11432;46.924;7.114;2022-12-29T15:20:00;2.35;;;0.57;;
22531;SDS011;11432;46.924;7.114;2022-12-29T15:22:47;3.67;;;0.98;;
22531;SDS011;11432;46.924;7.114;2022-12-29T15:25:17;2.17;;;0.90;;
22531;SDS011;11432;46.924;7.114;2022-12-29T15:27:48;1.95;;;0.80;;
22531;SDS011;11432;46.924;7.114;2022-12-29T15:30:15;1.60;;;0.77;;
22531;SDS011;11432;46.924;7.114;2022-12-29T15:32:44;1.67;;;0.85;;
22531;SDS011;11432;46.924;7.114;2022-12-29T15:38:15;2.33;;;1.05;;
22531;SDS011;11432;46.924;7.114;2022-12-29T15:40:47;1.83;;;0.85;;
22531;SDS011;11432;46.924;7.114;2022-12-29T15:46:03;1.63;;;0.95;;
22531;SDS011;11432;46.924;7.114;2022-12-29T15:48:29;1.55;;;0.80;;
22531;SDS011;11432;46.924;7.114;2022-12-29T15:50:55;1.88;;;1.00;;
22531;SDS011;11432;46.924;7.114;2022-12-29T15:53:26;4.32;;;1.20;;
22531;SDS011;11432;46.924;7.114;2022-12-29T15:55:55;1.80;;;0.90;;
22531;SDS011;11432;46.924;7.114;2022-12-29T15:58:24;1.88;;;0.95;;
22531;SDS011;11432;46.924;7.114;2022-12-29T16:00:58;2.97;;;1.33;;
22531;SDS011;11432;46.924;7.114;2022-12-29T16:03:26;2.47;;;1.17;;
22531;SDS011;11432;46.924;7.114;2022-12-29T16:08:40;4.10;;;1.10;;
22531;SDS011;11432;46.924;7.114;2022-12-29T16:11:20;3.05;;;1.20;;
22531;SDS011;11432;46.924;7.114;2022-12-29T16:13:50;2.50;;;1.10;;
22531;SDS011;11432;46.924;7.114;2022-12-29T16:16:24;2.15;;;1.02;;
22531;SDS011;11432;46.924;7.114;2022-12-29T16:18:56;4.30;;;1.08;;
22531;SDS011;11432;46.924;7.114;2022-12-29T16:21:26;2.30;;;0.93;;
22531;SDS011;11432;46.924;7.114;2022-12-29T16:23:55;2.30;;;1.00;;
22531;SDS011;11432;46.924;7.114;2022-12-29T16:26:26;5.30;;;1.10;;
22531;SDS011;11432;46.924;7.114;2022-12-29T16:28:56;2.50;;;0.90;;
22531;SDS011;11432;46.924;7.114;2022-12-29T16:32:18;4.15;;;1.20;;
22531;SDS011;11432;46.924;7.114;2022-12-29T16:34:32;3.88;;;0.90;;
22531;SDS011;11432;46.924;7.114;2022-12-29T16:42:46;6.07;;;1.48;;
22531;SDS011;11432;46.924;7.114;2022-12-29T16:50:28;3.53;;;1.10;;
22531;SDS011;11432;46.924;7.114;2022-12-29T16:52:54;2.97;;;1.13;;
22531;SDS011;11432;46.924;7.114;2022-12-29T16:55:19;3.15;;;1.73;;
22531;SDS011;11432;46.924;7.114;2022-12-29T16:57:46;5.90;;;3.53;;
22531;SDS011;11432;46.924;7.114;2022-12-29T17:00:21;6.03;;;1.53;;
22531;SDS011;11432;46.924;7.114;2022-12-29T17:02:55;7.65;;;4.25;;
22531;SDS011;11432;46.924;7.114;2022-12-29T17:05:23;4.88;;;2.78;;
22531;SDS011;11432;46.924;7.114;2022-12-29T17:07:49;6.57;;;2.20;;
22531;SDS011;11432;46.924;7.114;2022-12-29T17:10:16;5.03;;;1.58;;
22531;SDS011;11432;46.924;7.114;2022-12-29T17:12:42;2.75;;;1.33;;
22531;SDS011;11432;46.924;7.114;2022-12-29T17:15:14;3.13;;;1.40;;
22531;SDS011;11432;46.924;7.114;2022-12-29T17:17:46;4.03;;;1.58;;
22531;SDS011;11432;46.924;7.114;2022-12-29T17:22:46;3.50;;;1.73;;
22531;SDS011;11432;46.924;7.114;2022-12-29T17:25:13;4.35;;;1.88;;
22531;SDS011;11432;46.924;7.114;2022-12-29T17:28:42;3.20;;;1.73;;
22531;SDS011;11432;46.924;7.114;2022-12-29T17:30:36;3.70;;;2.00;;
22531;SDS011;11432;46.924;7.114;2022-12-29T17:33:09;3.08;;;1.50;;
22531;SDS011;11432;46.924;7.114;2022-12-29T17:35:39;4.03;;;1.80;;
22531;SDS011;11432;46.924;7.114;2022-12-29T17:40:45;3.53;;;1.80;;
22531;SDS011;11432;46.924;7.114;2022-12-29T17:43:12;3.97;;;1.73;;
22531;SDS011;11432;46.924;7.114;2022-12-29T17:45:39;4.05;;;1.77;;
22531;SDS011;11432;46.924;7.114;2022-12-29T17:48:12;3.50;;;1.80;;
22531;SDS011;11432;46.924;7.114;2022-12-29T17:50:40;3.38;;;1.73;;
22531;SDS011;11432;46.924;7.114;2022-12-29T17:53:09;4.30;;;1.80;;
22531;SDS011;11432;46.924;7.114;2022-12-29T17:55:40;3.22;;;1.90;;
22531;SDS011;11432;46.924;7.114;2022-12-29T17:58:19;5.28;;;1.63;;
22531;SDS011;11432;46.924;7.114;2022-12-29T18:00:52;3.85;;;1.50;;
22531;SDS011;11432;46.924;7.114;2022-12-29T18:03:27;3.10;;;1.77;;
22531;SDS011;11432;46.924;7.114;2022-12-29T18:05:55;5.22;;;2.78;;
22531;SDS011;11432;46.924;7.114;2022-12-29T18:08:20;4.55;;;1.75;;
22531;SDS011;11432;46.924;7.114;2022-12-29T18:10:46;6.15;;;1.80;;
22531;SDS011;11432;46.924;7.114;2022-12-29T18:13:30;5.28;;;2.00;;
22531;SDS011;11432;46.924;7.114;2022-12-29T18:15:58;4.53;;;2.00;;
22531;SDS011;11432;46.924;7.114;2022-12-29T18:18:25;5.65;;;1.90;;
22531;SDS011;11432;46.924;7.114;2022-12-29T18:20:52;4.93;;;2.22;;